Terminal Aerodrome Forecast
Issued by NWS

Home | Current Version | Previous Version | Text Only | Print | Product List | Glossary On
Versions: 1 2 3 4 5 6 7 8 9 10 11 12 13 14 15
000
FTUS46 KSTO 230538
TAFSAC
TAF
KSAC 230538Z 2306/2406 14004KT P6SM VCSH OVC040
      TEMPO 2312/2316 3SM -SHRA BR OVC010
     FM231700 15005KT P6SM -SHRA OVC015
     FM232200 17008KT P6SM BKN030 OVC100=

USA.gov is the U.S. government's official web portal to all federal, state and local government web resources and services.